Radiance Of The Seas — C6SE7 — position and weather

sailwx.info

Track history (hours):
 
Tides and Currents Weather Stations Pressure Air Temp Water Temp Dewpoint Dewpoint Depression Visibility Wind Speed Wind Dir Waves Ship Positions

Radiance Of The Seas

Operator: Royal Caribbean Cruises Ltd

Last reported at 2016-May-23 15:32 UTC. Time now 2016-May-25 14:49 UTC.
Position N 58°16' W 135°38'.

Type: Passenger vessel. MMSI: 311319000.

Date/timePositionNaut miles runAvg speedWind from/ knotsBaromVisibWave heightAir tempDewpointWater temp
2016-May-23 15:32N 58°16' W 135°38'50610.5
2016-May-21 15:33N 51°04' W 128°05'1414.2
2016-May-21 14:33N 50°58' W 127°44'1515.4
2016-May-21 13:33N 50°49' W 127°24'1515.1
2016-May-21 12:33N 50°43' W 127°02'6712.7
2016-May-21 07:15N 50°17' W 125°24'913.6
2016-May-21 06:33N 50°08' W 125°21'1414.4
2016-May-21 05:33N 49°56' W 125°08'1919.4
2016-May-21 04:33N 49°43' W 124°46'1918.7
2016-May-21 03:33N 49°30' W 124°25'1817.9
2016-May-21 02:33N 49°22' W 124°01'1818.2
2016-May-21 01:33N 49°20' W 123°33'1716.7
2016-May-21 00:33N 49°18' W 123°07'1 1.1
2016-May-20 23:28N 49°17' W 123°07'0 0.0
2016-May-20 22:28N 49°17' W 123°07'0 0.0
2016-May-20 21:28N 49°17' W 123°07'0 0.0
2016-May-20 20:28N 49°17' W 123°07'0 0.0
2016-May-20 19:28N 49°17' W 123°07'0 0.0
2016-May-20 18:28N 49°17' W 123°07'0 0.0
2016-May-20 17:28N 49°17' W 123°07'0 0.0
2016-May-20 16:28N 49°17' W 123°07'0 0.0
2016-May-20 15:28N 49°17' W 123°07'0 0.0
2016-May-20 14:34N 49°17' W 123°07'0 0.2
2016-May-20 13:33N 49°17' W 123°06'1010.5
2016-May-20 12:34N 49°19' W 123°22'1414.1
2016-May-20 11:34N 49°20' W 123°44'1414.2
2016-May-20 10:34N 49°23' W 124°05'1413.7
2016-May-20 09:34N 49°29' W 124°24'1414.0
2016-May-20 08:33N 49°39' W 124°40'1414.2
2016-May-20 07:33N 49°49' W 124°55'1414.1
2016-May-20 06:34N 49°59' W 125°11'1313.4
2016-May-20 05:33N 50°10' W 125°22'7114.2
2016-May-20 00:33N 50°43' W 127°01'1615.7
2016-May-19 23:33N 50°49' W 127°24'1615.7
2016-May-19 22:33N 50°57' W 127°44'1211.5
2016-May-19 21:33N 51°03' W 128°01'  
2016-May-16 17:33N 51°04' W 128°04'11513.9
2016-May-16 09:18N 50°12' W 125°22'912.6
2016-May-16 08:33N 50°04' W 125°15'1313.4
2016-May-16 07:33N 49°53' W 125°02'1615.8
2016-May-16 06:34N 49°42' W 124°45'1817.7
2016-May-16 05:34N 49°30' W 124°25'1918.5
2016-May-16 04:34N 49°22' W 123°60'2019.7
2016-May-16 03:34N 49°20' W 123°30'7 7.2
2016-May-16 02:34N 49°19' W 123°19'8 8.0
2016-May-16 01:33N 49°18' W 123°06'1 0.8
2016-May-16 00:32N 49°17' W 123°07'0 0.0
2016-May-15 23:32N 49°17' W 123°07'0 0.0
2016-May-15 22:32N 49°17' W 123°07'0 0.0
2016-May-15 21:34N 49°17' W 123°07'0 0.0
2016-May-15 20:34N 49°17' W 123°07'0 0.0
2016-May-15 19:33N 49°17' W 123°07'0 0.0
2016-May-15 18:33N 49°17' W 123°07'0 0.0
2016-May-15 17:33N 49°17' W 123°07'0 0.0
2016-May-15 16:33N 49°17' W 123°07'1 0.6
2016-May-15 15:34N 49°18' W 123°06'9 9.0
2016-May-15 14:34N 49°14' W 123°19'1817.6
2016-May-15 13:34N 48°58' W 123°11'1614.2
2016-May-15 12:27N 48°42' W 123°14'1718.8
2016-May-15 11:33N 48°25' W 123°10'1515.1
2016-May-15 10:34N 48°15' W 123°27'8611.9
2016-May-15 03:22N 47°13' W 124°55'1417.4
2016-May-15 02:34N 47°00' W 124°47'1716.7
2016-May-15 01:33N 46°45' W 124°38'1514.5
2016-May-15 00:33N 46°31' W 124°29'1 0.6
2016-May-14 23:34N 46°32' W 124°30'1 0.6
2016-May-14 22:34N 46°32' W 124°30'0 0.3
2016-May-14 21:34N 46°33' W 124°30'1010.2
2016-May-14 20:34N 46°23' W 124°25'1515.3
2016-May-14 19:33N 46°14' W 124°07'1312.8
2016-May-14 18:33N 46°12' W 123°49'1211.6
2016-May-14 17:33N 46°15' W 123°33'8 8.3
2016-May-14 16:34N 46°10' W 123°24'1010.0
2016-May-14 15:33N 46°11' W 123°10'1110.5
2016-May-14 14:33N 46°06' W 122°57'8 7.7
2016-May-14 13:33N 45°60' W 122°51'1010.1
2016-May-14 12:33N 45°50' W 122°48'1010.0
2016-May-14 11:33N 45°40' W 122°46'5 5.3
2016-May-14 10:32N 45°34' W 122°45'0 0.5
2016-May-14 09:33N 45°34' W 122°44'0 0.2
2016-May-14 08:33N 45°34' W 122°44'0 0.1
2016-May-14 07:31N 45°34' W 122°44'0 0.0
2016-May-14 06:31N 45°34' W 122°44'0 0.0
2016-May-14 05:31N 45°34' W 122°44'0 0.0
2016-May-14 04:31N 45°34' W 122°44'0 0.0
2016-May-14 03:31N 45°34' W 122°44'0 0.0
2016-May-14 02:28N 45°34' W 122°44'0 0.0
2016-May-14 01:31N 45°34' W 122°44'0 0.0
2016-May-14 00:25N 45°34' W 122°44'0 0.0
2016-May-13 23:31N 45°34' W 122°44'0 0.0
2016-May-13 22:31N 45°34' W 122°44'0 0.0
2016-May-13 21:28N 45°34' W 122°44'0 0.0
2016-May-13 20:33N 45°34' W 122°44'0 0.0
2016-May-13 19:33N 45°34' W 122°44'0 0.0
2016-May-13 18:32N 45°34' W 122°44'0 0.0
2016-May-13 17:32N 45°34' W 122°44'0 0.0
2016-May-13 16:22N 45°34' W 122°44'  
Track history (hours):
 
Tides and Currents Weather Stations Pressure Air Temp Water Temp Dewpoint Dewpoint Depression Visibility Wind Speed Wind Dir Waves Ship Positions

Radiance Of The Seas

Operator: Royal Caribbean Cruises Ltd

Last reported at 2016-May-23 15:32 UTC. Time now 2016-May-25 14:49 UTC.
Position N 58°16' W 135°38'.

Type: Passenger vessel. MMSI: 311319000.

Date/timePositionNaut miles runAvg speedWind from/ knotsBaromVisibWave heightAir tempDewpointWater temp
2016-May-23 15:32N 58°16' W 135°38'50610.5
2016-May-21 15:33N 51°04' W 128°05'1414.2
2016-May-21 14:33N 50°58' W 127°44'1515.4
2016-May-21 13:33N 50°49' W 127°24'1515.1
2016-May-21 12:33N 50°43' W 127°02'6712.7
2016-May-21 07:15N 50°17' W 125°24'913.6
2016-May-21 06:33N 50°08' W 125°21'1414.4
2016-May-21 05:33N 49°56' W 125°08'1919.4
2016-May-21 04:33N 49°43' W 124°46'1918.7
2016-May-21 03:33N 49°30' W 124°25'1817.9
2016-May-21 02:33N 49°22' W 124°01'1818.2
2016-May-21 01:33N 49°20' W 123°33'1716.7
2016-May-21 00:33N 49°18' W 123°07'1 1.1
2016-May-20 23:28N 49°17' W 123°07'0 0.0
2016-May-20 22:28N 49°17' W 123°07'0 0.0
2016-May-20 21:28N 49°17' W 123°07'0 0.0
2016-May-20 20:28N 49°17' W 123°07'0 0.0
2016-May-20 19:28N 49°17' W 123°07'0 0.0
2016-May-20 18:28N 49°17' W 123°07'0 0.0
2016-May-20 17:28N 49°17' W 123°07'0 0.0
2016-May-20 16:28N 49°17' W 123°07'0 0.0
2016-May-20 15:28N 49°17' W 123°07'0 0.0
2016-May-20 14:34N 49°17' W 123°07'0 0.2
2016-May-20 13:33N 49°17' W 123°06'1010.5
2016-May-20 12:34N 49°19' W 123°22'1414.1
2016-May-20 11:34N 49°20' W 123°44'1414.2
2016-May-20 10:34N 49°23' W 124°05'1413.7
2016-May-20 09:34N 49°29' W 124°24'1414.0
2016-May-20 08:33N 49°39' W 124°40'1414.2
2016-May-20 07:33N 49°49' W 124°55'1414.1
2016-May-20 06:34N 49°59' W 125°11'1313.4
2016-May-20 05:33N 50°10' W 125°22'7114.2
2016-May-20 00:33N 50°43' W 127°01'1615.7
2016-May-19 23:33N 50°49' W 127°24'1615.7
2016-May-19 22:33N 50°57' W 127°44'1211.5
2016-May-19 21:33N 51°03' W 128°01'  
2016-May-16 17:33N 51°04' W 128°04'11513.9
2016-May-16 09:18N 50°12' W 125°22'912.6
2016-May-16 08:33N 50°04' W 125°15'1313.4
2016-May-16 07:33N 49°53' W 125°02'1615.8
2016-May-16 06:34N 49°42' W 124°45'1817.7
2016-May-16 05:34N 49°30' W 124°25'1918.5
2016-May-16 04:34N 49°22' W 123°60'2019.7
2016-May-16 03:34N 49°20' W 123°30'7 7.2
2016-May-16 02:34N 49°19' W 123°19'8 8.0
2016-May-16 01:33N 49°18' W 123°06'1 0.8
2016-May-16 00:32N 49°17' W 123°07'0 0.0
2016-May-15 23:32N 49°17' W 123°07'0 0.0
2016-May-15 22:32N 49°17' W 123°07'0 0.0
2016-May-15 21:34N 49°17' W 123°07'0 0.0
2016-May-15 20:34N 49°17' W 123°07'0 0.0
2016-May-15 19:33N 49°17' W 123°07'0 0.0
2016-May-15 18:33N 49°17' W 123°07'0 0.0
2016-May-15 17:33N 49°17' W 123°07'0 0.0
2016-May-15 16:33N 49°17' W 123°07'1 0.6
2016-May-15 15:34N 49°18' W 123°06'9 9.0
2016-May-15 14:34N 49°14' W 123°19'1817.6
2016-May-15 13:34N 48°58' W 123°11'1614.2
2016-May-15 12:27N 48°42' W 123°14'1718.8
2016-May-15 11:33N 48°25' W 123°10'1515.1
2016-May-15 10:34N 48°15' W 123°27'8611.9
2016-May-15 03:22N 47°13' W 124°55'1417.4
2016-May-15 02:34N 47°00' W 124°47'1716.7
2016-May-15 01:33N 46°45' W 124°38'1514.5
2016-May-15 00:33N 46°31' W 124°29'1 0.6
2016-May-14 23:34N 46°32' W 124°30'1 0.6
2016-May-14 22:34N 46°32' W 124°30'0 0.3
2016-May-14 21:34N 46°33' W 124°30'1010.2
2016-May-14 20:34N 46°23' W 124°25'1515.3
2016-May-14 19:33N 46°14' W 124°07'1312.8
2016-May-14 18:33N 46°12' W 123°49'1211.6
2016-May-14 17:33N 46°15' W 123°33'8 8.3
2016-May-14 16:34N 46°10' W 123°24'1010.0
2016-May-14 15:33N 46°11' W 123°10'1110.5
2016-May-14 14:33N 46°06' W 122°57'8 7.7
2016-May-14 13:33N 45°60' W 122°51'1010.1
2016-May-14 12:33N 45°50' W 122°48'1010.0
2016-May-14 11:33N 45°40' W 122°46'5 5.3
2016-May-14 10:32N 45°34' W 122°45'0 0.5
2016-May-14 09:33N 45°34' W 122°44'0 0.2
2016-May-14 08:33N 45°34' W 122°44'0 0.1
2016-May-14 07:31N 45°34' W 122°44'0 0.0
2016-May-14 06:31N 45°34' W 122°44'0 0.0
2016-May-14 05:31N 45°34' W 122°44'0 0.0
2016-May-14 04:31N 45°34' W 122°44'0 0.0
2016-May-14 03:31N 45°34' W 122°44'0 0.0
2016-May-14 02:28N 45°34' W 122°44'0 0.0
2016-May-14 01:31N 45°34' W 122°44'0 0.0
2016-May-14 00:25N 45°34' W 122°44'0 0.0
2016-May-13 23:31N 45°34' W 122°44'0 0.0
2016-May-13 22:31N 45°34' W 122°44'0 0.0
2016-May-13 21:28N 45°34' W 122°44'0 0.0
2016-May-13 20:33N 45°34' W 122°44'0 0.0
2016-May-13 19:33N 45°34' W 122°44'0 0.0
2016-May-13 18:32N 45°34' W 122°44'0 0.0
2016-May-13 17:32N 45°34' W 122°44'0 0.0
2016-May-13 16:22N 45°34' W 122°44'  

Dump ship's entire track history